Time;durP1;ratioP1;P1;durP2;ratioP2;P2;SDS_P1;SDS_P2;PMS_P1;PMS_P2;Temp;Humidity;BMP_temperature;BMP_pressure;BME280_temperature;BME280_humidity;BME280_pressure;Samples;Min_cycle;Max_cycle;Signal;HPM_P1;HPM_P2
2021/03/16 00:03:31;;;;;;;;;;;;;;;;;;10540526;28;1278;-22
2021/03/16 00:09:11;;;;;;;;;;;;;;;;;;10570518;28;1906;-22
2021/03/16 00:14:47;;;;;;;;;;;;;;;;;;10524263;28;1071;-20
2021/03/16 00:20:10;;;;;;;;;;;;;;;;;;10554068;28;1063;-21
2021/03/16 00:25:31;;;;;;;;;;;;;;;;;;10510773;28;1064;-21
2021/03/16 00:31:06;;;;;;;;;;;;;;;;;;10551383;28;1902;-20
2021/03/16 00:36:41;;;;;;;;;;;;;;;;;;10569405;28;924;-20
2021/03/16 00:42:16;;;;;;;;;;;;;;;;;;10552663;28;1147;-20
2021/03/16 00:47:37;;;;;;;;;;;;;;;;;;10523957;28;1062;-20
2021/03/16 00:52:59;;;;;;;;;;;;;;;;;;10523451;28;1988;-20
2021/03/16 00:58:38;;;;;;;;;;;;;;;;;;10511713;28;1279;-20
2021/03/16 01:03:59;;;;;;;;;;;;;;;;;;10495648;28;1142;-20
2021/03/16 01:09:34;;;;;;;;;;;;;;;;;;10481241;28;1902;-20
2021/03/16 01:14:55;;;;;;;;;;;;;;;;;;10495350;28;1042;-21
2021/03/16 01:20:17;;;;;;;;;;;;;;;;;;10495292;28;1135;-20
2021/03/16 01:25:53;;;;;;;;;;;;;;;;;;10494902;28;1066;-20
2021/03/16 01:31:14;;;;;;;;;;;;;;;;;;10509181;28;1910;-20
2021/03/16 01:36:35;;;;;;;;;;;;;;;;;;10495129;28;1086;-20
2021/03/16 01:41:56;;;;;;;;;;;;;;;;;;10494761;28;1046;-20
2021/03/16 01:47:31;;;;;;;;;;;;;;;;;;10508589;28;1005;-21
2021/03/16 01:53:07;;;;;;;;;;;;;;;;;;10493770;28;1983;-21
2021/03/16 01:58:43;;;;;;;;;;;;;;;;;;10515711;28;1342;-21
2021/03/16 02:04:36;;;;;;;;;;;;;;;;;;10555463;28;1035;-20
2021/03/16 02:10:31;;;;;;;;;;;;;;;;;;10541339;28;1917;-20
2021/03/16 02:16:13;;;;;;;;;;;;;;;;;;10566315;28;975;-20
2021/03/16 02:22:06;;;;;;;;;;;;;;;;;;10536390;28;998;-20
2021/03/16 02:28:18;;;;;;;;;;;;;;;;;;10566325;28;1051;-20
2021/03/16 02:34:12;;;;;;;;;;;;;;;;;;10566032;28;1275;-20
2021/03/16 02:40:07;;;;;;;;;;;;;;;;;;10562964;28;1103;-20
2021/03/16 02:46:02;;;;;;;;;;;;;;;;;;10562412;28;1181;-20
2021/03/16 02:51:57;;;;;;;;;;;;;;;;;;10562752;28;1992;-21
2021/03/16 02:57:50;;;;;;;;;;;;;;;;;;10551705;28;1260;-20
2021/03/16 03:03:30;;;;;;;;;;;;;;;;;;10530841;28;1105;-20
2021/03/16 03:09:23;;;;;;;;;;;;;;;;;;10529994;28;1902;-20
2021/03/16 03:15:18;;;;;;;;;;;;;;;;;;10519342;28;1070;-20
2021/03/16 03:20:58;;;;;;;;;;;;;;;;;;10494288;28;1108;-20
2021/03/16 03:27:03;;;;;;;;;;;;;;;;;;10519067;28;969;-20
2021/03/16 03:32:42;;;;;;;;;;;;;;;;;;10493273;28;1981;-22
2021/03/16 03:38:36;;;;;;;;;;;;;;;;;;10509058;28;993;-20
2021/03/16 03:44:16;;;;;;;;;;;;;;;;;;10516115;28;1083;-20
2021/03/16 03:50:10;;;;;;;;;;;;;;;;;;10517606;28;1906;-20
2021/03/16 03:55:49;;;;;;;;;;;;;;;;;;10528830;28;1295;-20
2021/03/16 04:01:29;;;;;;;;;;;;;;;;;;10569719;28;1225;-20
2021/03/16 04:07:09;;;;;;;;;;;;;;;;;;10570892;28;1027;-21
2021/03/16 04:12:48;;;;;;;;;;;;;;;;;;10570522;28;1910;-20
2021/03/16 04:18:27;;;;;;;;;;;;;;;;;;10570099;28;1263;-20
2021/03/16 04:24:07;;;;;;;;;;;;;;;;;;10556659;28;1128;-21
2021/03/16 04:30:02;;;;;;;;;;;;;;;;;;10530004;28;1909;-20
2021/03/16 04:35:41;;;;;;;;;;;;;;;;;;10555900;28;1035;-20
2021/03/16 04:41:34;;;;;;;;;;;;;;;;;;10548379;28;1004;-20
2021/03/16 04:47:13;;;;;;;;;;;;;;;;;;10555301;28;1030;-20
2021/03/16 04:52:53;;;;;;;;;;;;;;;;;;10555682;28;1901;-20
2021/03/16 04:58:32;;;;;;;;;;;;;;;;;;10551938;28;1248;-20
2021/03/16 05:04:25;;;;;;;;;;;;;;;;;;10505536;28;1135;-20
2021/03/16 05:10:06;;;;;;;;;;;;;;;;;;10500938;28;1979;-21
2021/03/16 05:16:01;;;;;;;;;;;;;;;;;;10525887;28;1008;-20
2021/03/16 05:21:41;;;;;;;;;;;;;;;;;;10512179;28;996;-21
2021/03/16 05:27:34;;;;;;;;;;;;;;;;;;10514505;28;969;-20
2021/03/16 05:33:14;;;;;;;;;;;;;;;;;;10500253;28;1975;-21
2021/03/16 05:38:53;;;;;;;;;;;;;;;;;;10466474;28;1023;-21
2021/03/16 05:44:32;;;;;;;;;;;;;;;;;;10525225;28;997;-20
2021/03/16 05:50:25;;;;;;;;;;;;;;;;;;10524638;28;1991;-20
2021/03/16 05:56:06;;;;;;;;;;;;;;;;;;10523682;28;1893;-20
2021/03/16 06:01:59;;;;;;;;;;;;;;;;;;10494851;28;1071;-20
2021/03/16 06:07:53;;;;;;;;;;;;;;;;;;10503924;28;1077;-20
2021/03/16 06:13:32;;;;;;;;;;;;;;;;;;10505722;28;1910;-20
2021/03/16 06:19:43;;;;;;;;;;;;;;;;;;10532780;28;975;-20
2021/03/16 06:25:28;;;;;;;;;;;;;;;;;;10530925;28;1059;-21
2021/03/16 06:31:07;;;;;;;;;;;;;;;;;;10532191;28;1906;-20
2021/03/16 06:36:56;;;;;;;;;;;;;;;;;;10518501;28;1083;-20
2021/03/16 06:42:34;;;;;;;;;;;;;;;;;;10532228;28;1112;-21
2021/03/16 06:48:18;;;;;;;;;;;;;;;;;;10531814;28;987;-22
2021/03/16 06:54:12;;;;;;;;;;;;;;;;;;10520064;28;1186;-20
2021/03/16 07:00:08;;;;;;;;;;;;;;;;;;10559058;28;1305;-21
2021/03/16 07:05:48;;;;;;;;;;;;;;;;;;10559508;28;1159;-21
2021/03/16 07:11:48;;;;;;;;;;;;;;;;;;10524225;28;1988;-20
2021/03/16 07:17:43;;;;;;;;;;;;;;;;;;10572606;28;1112;-20
2021/03/16 07:23:23;;;;;;;;;;;;;;;;;;10571952;28;1183;-20
2021/03/16 07:29:04;;;;;;;;;;;;;;;;;;10572145;28;1902;-20
2021/03/16 07:34:59;;;;;;;;;;;;;;;;;;10541433;28;1001;-22
2021/03/16 07:40:53;;;;;;;;;;;;;;;;;;10560166;28;1313;-21
2021/03/16 07:46:47;;;;;;;;;;;;;;;;;;10550616;28;1107;-20
2021/03/16 07:52:52;;;;;;;;;;;;;;;;;;10554326;28;1910;-20
2021/03/16 07:58:47;;;;;;;;;;;;;;;;;;10553832;28;2449;-21
2021/03/16 08:04:33;;;;;;;;;;;;;;;;;;10550648;28;1282;-20
2021/03/16 08:10:12;;;;;;;;;;;;;;;;;;10564851;28;1901;-21
2021/03/16 08:16:12;;;;;;;;;;;;;;;;;;10543324;28;977;-20
2021/03/16 08:22:12;;;;;;;;;;;;;;;;;;10404154;28;1337;-20
2021/03/16 08:28:11;;;;;;;;;;;;;;;;;;10432266;28;1080;-20
2021/03/16 08:34:06;;;;;;;;;;;;;;;;;;10340089;28;1898;-20
2021/03/16 08:40:06;;;;;;;;;;;;;;;;;;10340382;28;1146;-20
2021/03/16 08:45:46;;;;;;;;;;;;;;;;;;10338785;28;1099;-21
2021/03/16 08:51:43;;;;;;;;;;;;;;;;;;10340439;28;1987;-21
2021/03/16 08:57:38;;;;;;;;;;;;;;;;;;10058297;28;10000247;-20
2021/03/16 09:03:33;;;;;;;;;;;;;;;;;;10421420;28;1293;-20
2021/03/16 09:09:31;;;;;;;;;;;;;;;;;;10447411;28;1968;-20
2021/03/16 09:15:12;;;;;;;;;;;;;;;;;;10508131;28;976;-20
2021/03/16 09:20:52;;;;;;;;;;;;;;;;;;10520646;28;949;-21
2021/03/16 09:26:55;;;;;;;;;;;;;;;;;;10518476;28;960;-21
2021/03/16 09:33:17;;;;;;;;;;;;;;;;;;10519906;28;1913;-20
2021/03/16 09:38:59;;;;;;;;;;;;;;;;;;10526065;28;994;-20
2021/03/16 09:44:49;;;;;;;;;;;;;;;;;;10518566;28;1045;-20
2021/03/16 09:50:24;;;;;;;;;;;;;;;;;;10527343;28;1898;-20
2021/03/16 09:55:44;;;;;;;;;;;;;;;;;;10544521;28;2590;-21
2021/03/16 10:01:04;;;;;;;;;;;;;;;;;;10521382;28;1315;-21
2021/03/16 10:06:44;;;;;;;;;;;;;;;;;;10448251;28;1045;-20
2021/03/16 10:12:19;;;;;;;;;;;;;;;;;;10433966;28;1985;-20
2021/03/16 10:17:56;;;;;;;;;;;;;;;;;;10405141;28;1036;-20
2021/03/16 10:23:31;;;;;;;;;;;;;;;;;;10435611;28;1491;-20
2021/03/16 10:28:52;;;;;;;;;;;;;;;;;;10422761;28;1299;-20
2021/03/16 10:34:27;;;;;;;;;;;;;;;;;;10424364;28;1021;-21
2021/03/16 10:40:04;;;;;;;;;;;;;;;;;;10410064;28;1056;-20
2021/03/16 10:45:26;;;;;;;;;;;;;;;;;;10424131;28;1068;-20
2021/03/16 10:50:46;;;;;;;;;;;;;;;;;;10438342;28;2008;-21
2021/03/16 10:56:07;;;;;;;;;;;;;;;;;;10438311;28;1074;-21
2021/03/16 11:01:42;;;;;;;;;;;;;;;;;;10448027;28;1081;-21
2021/03/16 11:07:18;;;;;;;;;;;;;;;;;;10530433;28;1192;-21
2021/03/16 11:12:38;;;;;;;;;;;;;;;;;;10486035;28;1905;-20
2021/03/16 11:18:13;;;;;;;;;;;;;;;;;;10504173;28;1102;-21
2021/03/16 11:23:48;;;;;;;;;;;;;;;;;;10530143;28;990;-20
2021/03/16 11:29:24;;;;;;;;;;;;;;;;;;10475459;28;1543;-20
2021/03/16 11:34:59;;;;;;;;;;;;;;;;;;10451389;28;1023;-21
2021/03/16 11:40:53;;;;;;;;;;;;;;;;;;10529649;28;1058;-22
2021/03/16 11:46:32;;;;;;;;;;;;;;;;;;10534423;28;1199;-21
2021/03/16 11:52:26;;;;;;;;;;;;;;;;;;10510003;28;2371;-20
2021/03/16 11:58:05;;;;;;;;;;;;;;;;;;10518651;28;1176;-21
2021/03/16 12:03:44;;;;;;;;;;;;;;;;;;10563543;28;1184;-20
2021/03/16 12:09:23;;;;;;;;;;;;;;;;;;10551484;28;1131;-20
2021/03/16 12:15:10;;;;;;;;;;;;;;;;;;10564241;28;1056;-20
2021/03/16 12:20:50;;;;;;;;;;;;;;;;;;10564855;28;1002;-20
2021/03/16 12:26:29;;;;;;;;;;;;;;;;;;10564337;28;953;-21
2021/03/16 12:32:08;;;;;;;;;;;;;;;;;;10550261;28;2034;-20
2021/03/16 12:38:03;;;;;;;;;;;;;;;;;;10537948;28;1154;-20
2021/03/16 12:43:42;;;;;;;;;;;;;;;;;;10548381;28;1104;-20
2021/03/16 12:49:20;;;;;;;;;;;;;;;;;;10563439;28;1128;-21
2021/03/16 12:55:00;;;;;;;;;;;;;;;;;;10158143;28;10000872;-20
2021/03/16 13:00:39;;;;;;;;;;;;;;;;;;10529198;28;1328;-20
2021/03/16 13:06:33;;;;;;;;;;;;;;;;;;10541113;28;1225;-20
2021/03/16 13:12:12;;;;;;;;;;;;;;;;;;10525602;28;1979;-20
2021/03/16 13:17:51;;;;;;;;;;;;;;;;;;10548538;28;976;-20
2021/03/16 13:23:30;;;;;;;;;;;;;;;;;;10562000;28;1048;-20
2021/03/16 13:29:09;;;;;;;;;;;;;;;;;;10562152;28;1240;-20
2021/03/16 13:35:03;;;;;;;;;;;;;;;;;;10559162;28;1224;-19
2021/03/16 13:40:42;;;;;;;;;;;;;;;;;;10536362;28;1117;-20
2021/03/16 13:46:36;;;;;;;;;;;;;;;;;;10419803;28;1133;-20
2021/03/16 13:52:30;;;;;;;;;;;;;;;;;;10443347;28;2812;-20
2021/03/16 13:58:23;;;;;;;;;;;;;;;;;;10443813;28;2061;-21
2021/03/16 14:04:02;;;;;;;;;;;;;;;;;;10412243;28;1499;-21
2021/03/16 14:09:55;;;;;;;;;;;;;;;;;;9037693;28;10001469;-21
2021/03/16 14:15:48;;;;;;;;;;;;;;;;;;10428891;28;1290;-20
2021/03/16 14:21:28;;;;;;;;;;;;;;;;;;10458516;28;1095;-20
2021/03/16 14:27:07;;;;;;;;;;;;;;;;;;10484832;28;1202;-20
2021/03/16 14:32:46;;;;;;;;;;;;;;;;;;10522735;28;1985;-20
2021/03/16 14:38:26;;;;;;;;;;;;;;;;;;10501501;28;1128;-20
2021/03/16 14:44:19;;;;;;;;;;;;;;;;;;10525642;28;1091;-20
2021/03/16 14:49:58;;;;;;;;;;;;;;;;;;10511858;28;1981;-21
2021/03/16 14:55:52;;;;;;;;;;;;;;;;;;10525326;28;993;-21
2021/03/16 15:01:33;;;;;;;;;;;;;;;;;;10565381;28;1205;-21
2021/03/16 15:07:26;;;;;;;;;;;;;;;;;;10566093;28;2376;-21
2021/03/16 15:13:21;;;;;;;;;;;;;;;;;;10504414;28;1905;-21
2021/03/16 15:19:15;;;;;;;;;;;;;;;;;;10524112;28;1036;-21
2021/03/16 15:24:54;;;;;;;;;;;;;;;;;;10517008;28;1131;-22
2021/03/16 15:30:33;;;;;;;;;;;;;;;;;;10527455;28;1902;-21
2021/03/16 15:36:12;;;;;;;;;;;;;;;;;;10515877;28;988;-20
2021/03/16 15:41:51;;;;;;;;;;;;;;;;;;10513811;28;1063;-21
2021/03/16 15:47:36;;;;;;;;;;;;;;;;;;10514434;28;1079;-21
2021/03/16 15:53:15;;;;;;;;;;;;;;;;;;10565205;28;1910;-21
2021/03/16 15:58:54;;;;;;;;;;;;;;;;;;10525074;28;1216;-21
2021/03/16 16:04:33;;;;;;;;;;;;;;;;;;10527626;28;1072;-22
2021/03/16 16:10:13;;;;;;;;;;;;;;;;;;10527882;28;1898;-21
2021/03/16 16:15:52;;;;;;;;;;;;;;;;;;10514590;28;1143;-19
2021/03/16 16:21:46;;;;;;;;;;;;;;;;;;10516766;28;1046;-19
2021/03/16 16:27:43;;;;;;;;;;;;;;;;;;9589164;28;10000925;-19
2021/03/16 16:33:22;;;;;;;;;;;;;;;;;;10443634;28;1878;-22
2021/03/16 16:39:02;;;;;;;;;;;;;;;;;;10441712;28;1023;-20
2021/03/16 16:44:55;;;;;;;;;;;;;;;;;;9529622;28;10000988;-20
2021/03/16 16:50:48;;;;;;;;;;;;;;;;;;10400110;28;3158;-20
2021/03/16 16:56:29;;;;;;;;;;;;;;;;;;9481527;28;10000917;-20
2021/03/16 17:02:23;;;;;;;;;;;;;;;;;;9481109;28;10000688;-20
2021/03/16 17:08:02;;;;;;;;;;;;;;;;;;10361024;28;971;-23
2021/03/16 17:13:55;;;;;;;;;;;;;;;;;;10359578;28;1898;-23
2021/03/16 17:19:49;;;;;;;;;;;;;;;;;;10359856;28;1120;-24
2021/03/16 17:25:43;;;;;;;;;;;;;;;;;;9438759;28;10000964;-23
2021/03/16 17:31:36;;;;;;;;;;;;;;;;;;10341452;28;1993;-23
2021/03/16 17:37:30;;;;;;;;;;;;;;;;;;10326967;28;1196;-28
2021/03/16 17:43:09;;;;;;;;;;;;;;;;;;10319241;28;1066;-23
2021/03/16 17:48:48;;;;;;;;;;;;;;;;;;10317291;28;1222;-22
2021/03/16 17:54:27;;;;;;;;;;;;;;;;;;10327642;28;2291;-22
2021/03/16 18:00:07;;;;;;;;;;;;;;;;;;10355789;28;2502;-23
2021/03/16 18:05:47;;;;;;;;;;;;;;;;;;10359267;28;1004;-22
2021/03/16 18:11:40;;;;;;;;;;;;;;;;;;10415353;28;7214;-22
2021/03/16 18:17:33;;;;;;;;;;;;;;;;;;10418733;28;3105;-22
2021/03/16 18:23:13;;;;;;;;;;;;;;;;;;10405575;28;1138;-34
2021/03/16 18:29:06;;;;;;;;;;;;;;;;;;10411166;28;1237;-27
2021/03/16 18:35:00;;;;;;;;;;;;;;;;;;10409637;28;1878;-24
2021/03/16 18:40:42;;;;;;;;;;;;;;;;;;10411241;28;947;-32
2021/03/16 18:46:24;;;;;;;;;;;;;;;;;;10422531;28;1203;-27
2021/03/16 18:52:17;;;;;;;;;;;;;;;;;;10400144;28;1903;-29
2021/03/16 18:58:10;;;;;;;;;;;;;;;;;;10399393;28;1380;-28
2021/03/16 19:23:42;;;;;;;;;;;;;;;;;;10371541;28;2323;-29
2021/03/16 19:49:14;;;;;;;;;;;;;;;;;;10399217;28;1020;-25
2021/03/16 19:54:54;;;;;;;;;;;;;;;;;;10388019;28;2375;-26
2021/03/16 20:00:33;;;;;;;;;;;;;;;;;;10376067;28;2408;-28
2021/03/16 20:06:12;;;;;;;;;;;;;;;;;;10357390;28;1008;-26
2021/03/16 20:11:51;;;;;;;;;;;;;;;;;;10386061;28;1907;-27
2021/03/16 20:17:30;;;;;;;;;;;;;;;;;;10395860;28;1265;-25
2021/03/16 20:23:10;;;;;;;;;;;;;;;;;;10395924;28;1149;-25
2021/03/16 20:28:50;;;;;;;;;;;;;;;;;;10394733;28;1272;-26
2021/03/16 20:34:43;;;;;;;;;;;;;;;;;;10396231;28;1902;-26
2021/03/16 20:40:22;;;;;;;;;;;;;;;;;;10395361;28;1163;-26
2021/03/16 20:46:16;;;;;;;;;;;;;;;;;;10410340;28;1331;-24
2021/03/16 20:51:56;;;;;;;;;;;;;;;;;;10400404;28;1906;-27
2021/03/16 20:57:36;;;;;;;;;;;;;;;;;;10402133;28;1151;-26
2021/03/16 21:03:29;;;;;;;;;;;;;;;;;;10377694;28;1355;-28
2021/03/16 21:09:08;;;;;;;;;;;;;;;;;;10347713;28;993;-29
2021/03/16 21:15:03;;;;;;;;;;;;;;;;;;10356849;28;1914;-26
2021/03/16 21:20:56;;;;;;;;;;;;;;;;;;10344137;28;1002;-26
2021/03/16 21:26:36;;;;;;;;;;;;;;;;;;10355228;28;948;-28
2021/03/16 21:32:30;;;;;;;;;;;;;;;;;;10353084;28;1971;-25
2021/03/16 21:38:11;;;;;;;;;;;;;;;;;;10352889;28;1036;-25
2021/03/16 21:44:05;;;;;;;;;;;;;;;;;;10365559;28;1103;-26
2021/03/16 21:49:44;;;;;;;;;;;;;;;;;;10352482;28;1034;-28
2021/03/16 21:55:23;;;;;;;;;;;;;;;;;;9431875;28;10001003;-25
2021/03/16 22:01:03;;;;;;;;;;;;;;;;;;10303172;28;1531;-26
2021/03/16 22:06:42;;;;;;;;;;;;;;;;;;10355525;28;1151;-30
2021/03/16 22:12:21;;;;;;;;;;;;;;;;;;10359050;28;1910;-26
2021/03/16 22:18:14;;;;;;;;;;;;;;;;;;10357139;28;1235;-27
2021/03/16 22:24:08;;;;;;;;;;;;;;;;;;10357535;28;1205;-25
2021/03/16 22:29:47;;;;;;;;;;;;;;;;;;10346208;28;1595;-25
2021/03/16 22:35:40;;;;;;;;;;;;;;;;;;10357225;28;1056;-25
2021/03/16 22:41:34;;;;;;;;;;;;;;;;;;10357518;28;3120;-25
2021/03/16 22:47:28;;;;;;;;;;;;;;;;;;10366777;28;1064;-28
2021/03/16 22:53:21;;;;;;;;;;;;;;;;;;10360214;28;1981;-26
2021/03/16 22:59:15;;;;;;;;;;;;;;;;;;10323073;28;976;-24
2021/03/16 23:05:09;;;;;;;;;;;;;;;;;;10363030;28;2867;-26
2021/03/16 23:10:48;;;;;;;;;;;;;;;;;;10363160;28;1906;-23
2021/03/16 23:16:29;;;;;;;;;;;;;;;;;;10365984;28;1330;-23
2021/03/16 23:22:08;;;;;;;;;;;;;;;;;;10351027;28;2784;-22
2021/03/16 23:27:47;;;;;;;;;;;;;;;;;;10349585;28;1304;-21
2021/03/16 23:33:27;;;;;;;;;;;;;;;;;;10363016;28;1914;-21
2021/03/16 23:39:07;;;;;;;;;;;;;;;;;;10365174;28;1012;-23
2021/03/16 23:45:00;;;;;;;;;;;;;;;;;;10363443;28;2143;-26
2021/03/16 23:50:54;;;;;;;;;;;;;;;;;;10388767;28;2520;-21
2021/03/16 23:56:48;;;;;;;;;;;;;;;;;;10362490;28;2461;-21
